< < Back
Terminal Aerodrome Forecast


Current Version              Previous Versions:   1  2  3  4  5  6  7  8  9  

Terminal Aerodrome Forecast

257
FTUS42 KCHS 011600 AAB
TAFSAV
TAF AMD
KSAV 011601Z 0116/0212 03006KT P6SM SCT006 BKN035
      TEMPO 0116/0117 BKN015
     FM011800 08008KT P6SM VCTS SCT025CB BKN140
     FM012300 12006KT P6SM SCT025 BKN150
     FM020600 VRB03KT P6SM VCSH SCT012 BKN035=



Latest METAR

589
SAUS80 KWBC 012200 RRF
MTRSAV
METAR KSAV 012153Z 08008KT 10SM FEW018 SCT065 BKN180 OVC220 28/23 A2998
RMK AO2 SLP152 T02830233


USA.gov is the U.S. government's official web portal to all federal, state and local government web resources and services.